Ralph Wien Memorial Airport
PAOT : now visible

Aeroporto :











RITROVATECI SU...

 
LOGIN :

Iscrizione | Disclaimer

   EN    FR    IT 

 









Sommario :    VFR   VFR Marginale   IFR   IFR Intensivo   IFR Molto Intensivo
Visibilità : 
Base nubi : 
>= 8 km
>= 3000ft
5 / 8 km
1000 / 3000 ft
1500m / 5 km
500 / 1000 ft
800 / 1500m
200 / 500 ft
< 800m
< 200 ft
Simboli :   Temporali  Nebbia  Neve Forte  Precipitazioni Forti  Vento > 20 kt






- Altitudine del aeroporto : 14 ft
- Codice IATA : OTZ


PAOT - Ralph Wien Memorial

ULTIMO METAR :
  • 130100Z 28019KT 10SM FEW011 10/07 A2969 RMK AO2 T01000067 $

METARs OBSOLETI :
  • 130053Z 27020KT 10SM BKN010 10/07 A2969 RMK AO2 SLP055 T01000072 $
  • 122353Z AUTO 28020KT 10SM BKN010 09/07 A2970 RMK AO2 SLP057 T00940067 10100 20089 51001 TSNO $
  • 122253Z 27020G26KT 10SM BKN010 09/07 A2970 RMK AO2 PK WND 28027/2239 SLP057 T00940067 $

TAF PAOT
Valido dal 13 a 00 ore il 14 a 00 ore UTC


122327Z 1300/1324 27020G26KT P6SM BKN010
FM130500 28018KT P6SM SCT010 BKN250
FM131200 27008KT P6SM BKN100
FIR PAZA / America del Nord



MetMap, La meteo Aeronautica in un colpo d'occhio ! - Copyright ORBIFLY Dicembre 2007 - Disclaimer

ORBIFLY MET'MAP TEAM :

Programmazione e sviluppo : Alexandra Zaïnal
Concezione : Baudouin d'Aumeries
Aiuto per la programmazione : Marc-Olivier Méhu
Supporto tecnico e logistico : Manuel Goepfert
Aiuto per la traduzione : Arnaldo La Scala

Contatto : metmap@orbifly.com




FONTI E CREDITI :

   NOAA       Earth
Advisory